createdAt,value
2018-09-12T00:01:12.815Z,92.50
2018-09-12T00:03:41.665Z,93.40
2018-09-12T00:06:10.079Z,94.30
2018-09-12T00:08:38.839Z,95.20
2018-09-12T00:11:08.599Z,96.00
2018-09-12T00:13:37.374Z,96.70
2018-09-12T00:16:05.485Z,97.40
2018-09-12T00:18:34.287Z,98.50
2018-09-12T00:21:03.095Z,99.40
2018-09-12T00:23:32.342Z,99.90
2018-09-12T00:26:01.110Z,99.90
2018-09-12T00:28:30.113Z,99.90
2018-09-12T00:30:58.583Z,99.90
2018-09-12T00:33:27.333Z,99.90
2018-09-12T00:35:55.757Z,99.90
2018-09-12T00:38:24.536Z,99.90
2018-09-12T00:40:53.364Z,99.90
2018-09-12T00:43:21.863Z,99.90
2018-09-12T00:45:50.652Z,99.90
2018-09-12T00:48:19.191Z,99.90
2018-09-12T00:50:47.654Z,99.90
2018-09-12T00:53:16.398Z,99.90
2018-09-12T00:55:44.912Z,99.90
2018-09-12T00:58:13.677Z,99.90
2018-09-12T01:00:42.488Z,99.90
2018-09-12T01:03:10.978Z,99.90
2018-09-12T01:05:42.628Z,99.90
2018-09-12T01:08:12.739Z,99.90
2018-09-12T01:10:41.536Z,99.90
2018-09-12T01:13:10.278Z,99.90
2018-09-12T01:15:39.045Z,99.90
2018-09-12T01:18:07.173Z,99.90
2018-09-12T01:20:35.573Z,99.90
2018-09-12T01:23:04.004Z,99.90
2018-09-12T01:25:32.442Z,99.90
2018-09-12T01:28:00.578Z,99.90
2018-09-12T01:30:29.035Z,99.90
2018-09-12T01:32:57.894Z,99.90
2018-09-12T01:35:26.218Z,99.90
2018-09-12T01:37:54.990Z,99.90
2018-09-12T01:40:23.476Z,99.90
2018-09-12T01:42:52.778Z,99.90
2018-09-12T01:45:22.020Z,99.90
2018-09-12T01:47:51.139Z,99.90
2018-09-12T01:50:19.875Z,99.90
2018-09-12T01:52:48.454Z,99.90
2018-09-12T01:55:16.910Z,99.90
2018-09-12T01:57:45.725Z,99.90
2018-09-12T02:00:18.156Z,99.90
2018-09-12T02:02:47.587Z,99.90
2018-09-12T02:05:16.037Z,99.90
2018-09-12T02:07:44.837Z,99.90
2018-09-12T02:10:13.474Z,99.90
2018-09-12T02:12:42.206Z,99.90
2018-09-12T02:15:10.735Z,99.90
2018-09-12T02:17:39.478Z,99.90
2018-09-12T02:20:07.688Z,99.90
2018-09-12T02:22:36.451Z,99.90
2018-09-12T02:25:04.574Z,99.90
2018-09-12T02:27:33.388Z,99.90
2018-09-12T02:30:01.582Z,99.90
2018-09-12T02:32:30.513Z,99.90
2018-09-12T02:34:58.922Z,99.90
2018-09-12T02:37:27.322Z,99.90
2018-09-12T02:39:56.349Z,99.90
2018-09-12T02:42:25.263Z,99.90
2018-09-12T02:44:53.734Z,99.90
2018-09-12T02:47:28.015Z,99.90
2018-09-12T02:49:56.614Z,99.90
2018-09-12T02:52:25.336Z,99.90
2018-09-12T02:54:53.787Z,99.90
2018-09-12T02:57:22.593Z,99.90
2018-09-12T02:59:51.083Z,99.90
2018-09-12T03:02:19.415Z,99.90
2018-09-12T03:04:47.870Z,99.90
2018-09-12T03:07:16.763Z,99.90
2018-09-12T03:09:45.361Z,99.90
2018-09-12T03:12:14.086Z,99.90
2018-09-12T03:14:42.721Z,99.90
2018-09-12T03:17:11.998Z,99.90
2018-09-12T03:19:40.870Z,99.90
2018-09-12T03:22:09.657Z,99.90
2018-09-12T03:24:38.135Z,99.90
2018-09-12T03:27:06.857Z,99.90
2018-09-12T03:29:35.650Z,99.90
2018-09-12T03:32:04.160Z,99.90
2018-09-12T03:34:32.668Z,99.90
2018-09-12T03:37:01.442Z,99.90
2018-09-12T03:39:30.404Z,99.90
2018-09-12T03:41:58.465Z,99.90
2018-09-12T03:44:26.921Z,99.90
2018-09-12T03:46:55.315Z,99.90
2018-09-12T03:49:23.740Z,99.90
2018-09-12T03:51:52.494Z,99.90
2018-09-12T03:54:21.249Z,99.90
2018-09-12T03:56:50.033Z,99.90
2018-09-12T03:59:18.808Z,99.90
2018-09-12T04:01:46.923Z,99.90
2018-09-12T04:04:15.747Z,99.90
2018-09-12T04:06:44.547Z,99.90
2018-09-12T04:09:13.390Z,99.90
2018-09-12T04:11:42.171Z,99.90
2018-09-12T04:14:10.983Z,99.90
2018-09-12T04:19:20.017Z,99.90
2018-09-12T04:21:48.797Z,99.90
2018-09-12T04:24:17.653Z,99.90
2018-09-12T04:26:46.627Z,99.90
2018-09-12T04:29:14.750Z,99.90
2018-09-12T04:31:43.623Z,99.90
2018-09-12T04:34:12.382Z,99.90
2018-09-12T04:36:40.802Z,99.90
2018-09-12T04:39:10.216Z,99.90
2018-09-12T04:41:38.446Z,99.90
2018-09-12T04:44:06.935Z,99.90
2018-09-12T04:46:35.821Z,99.90
2018-09-12T04:49:04.688Z,99.90
2018-09-12T04:51:33.199Z,99.90
2018-09-12T04:54:02.027Z,99.90
2018-09-12T04:56:30.455Z,99.90
2018-09-12T04:58:58.660Z,99.90
2018-09-12T05:01:27.425Z,99.90
2018-09-12T05:03:55.968Z,99.90
2018-09-12T05:06:24.694Z,99.90
2018-09-12T05:08:53.885Z,99.90
2018-09-12T05:11:23.043Z,99.90
2018-09-12T05:13:51.753Z,99.90
2018-09-12T05:16:20.530Z,99.90
2018-09-12T05:18:48.931Z,99.90
2018-09-12T05:21:17.675Z,99.90
2018-09-12T05:23:46.115Z,99.90
2018-09-12T05:26:14.552Z,99.90
2018-09-12T05:28:42.958Z,99.90
2018-09-12T05:31:11.415Z,99.90
2018-09-12T05:33:40.299Z,99.90
2018-09-12T05:36:09.176Z,99.90
2018-09-12T05:38:38.062Z,99.90
2018-09-12T05:41:06.864Z,99.90
2018-09-12T05:43:35.573Z,99.90
2018-09-12T05:46:04.021Z,99.90
2018-09-12T05:48:32.489Z,99.90
2018-09-12T05:51:01.248Z,99.90
2018-09-12T05:53:30.088Z,99.90
2018-09-12T05:55:59.266Z,99.90
2018-09-12T05:58:28.026Z,99.90
2018-09-12T06:00:56.815Z,99.90
2018-09-12T06:03:25.477Z,99.90
2018-09-12T06:05:54.250Z,99.90
2018-09-12T06:08:23.153Z,99.90
2018-09-12T06:10:51.792Z,99.90
2018-09-12T06:13:20.542Z,99.90
2018-09-12T06:15:48.901Z,99.90
2018-09-12T06:18:17.658Z,99.90
2018-09-12T06:20:46.131Z,99.90
2018-09-12T06:23:15.220Z,99.90
2018-09-12T06:25:43.962Z,99.90
2018-09-12T06:28:12.833Z,99.90
2018-09-12T06:30:41.585Z,99.90
2018-09-12T06:33:10.145Z,99.90
2018-09-12T06:35:38.549Z,99.90
2018-09-12T06:38:06.613Z,99.90
2018-09-12T06:40:35.377Z,99.40
2018-09-12T06:43:03.761Z,99.10
2018-09-12T06:45:32.506Z,98.70
2018-09-12T06:48:01.078Z,97.90
2018-09-12T06:50:29.826Z,97.60
2018-09-12T06:52:58.648Z,97.30
2018-09-12T06:55:27.237Z,96.00
2018-09-12T06:57:55.705Z,94.50
2018-09-12T07:00:23.945Z,94.10
2018-09-12T07:02:53.024Z,94.00
2018-09-12T07:05:21.426Z,92.80
2018-09-12T07:07:49.809Z,90.40
2018-09-12T07:10:18.731Z,90.10
2018-09-12T07:12:47.305Z,87.90
2018-09-12T07:15:15.743Z,85.10
2018-09-12T07:17:44.431Z,83.70
2018-09-12T07:20:12.561Z,83.60
2018-09-12T07:22:41.290Z,82.80
2018-09-12T07:25:10.269Z,83.20
2018-09-12T07:27:39.172Z,83.00
2018-09-12T07:30:07.744Z,81.80
2018-09-12T07:32:36.880Z,81.70
2018-09-12T07:35:04.987Z,81.00
2018-09-12T07:37:33.704Z,80.20
2018-09-12T07:40:02.541Z,78.80
2018-09-12T07:42:31.735Z,78.20
2018-09-12T07:45:00.131Z,77.20
2018-09-12T07:47:28.947Z,76.90
2018-09-12T07:49:57.851Z,77.00
2018-09-12T07:52:26.577Z,75.20
2018-09-12T07:54:55.687Z,74.30
2018-09-12T07:57:24.578Z,73.70
2018-09-12T07:59:53.080Z,72.80
2018-09-12T08:02:22.045Z,72.70
2018-09-12T08:04:50.532Z,74.00
2018-09-12T08:07:18.975Z,73.20
2018-09-12T08:09:47.799Z,71.40
2018-09-12T08:12:16.569Z,70.10
2018-09-12T08:14:45.643Z,70.20
2018-09-12T08:17:14.106Z,69.50
2018-09-12T08:19:42.870Z,69.10
2018-09-12T08:22:11.416Z,71.40
2018-09-12T08:24:39.940Z,73.70
2018-09-12T08:27:08.624Z,74.20
2018-09-12T08:29:37.373Z,76.10
2018-09-12T08:32:05.879Z,76.70
2018-09-12T08:34:34.993Z,78.10
2018-09-12T08:37:05.397Z,76.70
2018-09-12T08:39:35.903Z,75.10
2018-09-12T08:42:04.229Z,74.40
2018-09-12T08:44:32.915Z,74.50
2018-09-12T08:47:01.385Z,75.30
2018-09-12T08:49:29.478Z,74.90
2018-09-12T08:51:58.762Z,75.50
2018-09-12T08:54:27.254Z,75.80
2018-09-12T08:56:56.011Z,76.20
2018-09-12T08:59:24.471Z,76.80
2018-09-12T09:01:54.768Z,76.80
2018-09-12T09:04:23.251Z,76.50
2018-09-12T09:06:52.344Z,76.30
2018-09-12T09:09:21.413Z,76.10
2018-09-12T09:11:50.998Z,75.00
2018-09-12T09:14:20.017Z,74.80
2018-09-12T09:16:48.822Z,78.60
2018-09-12T09:19:17.287Z,81.80
2018-09-12T09:21:46.410Z,81.70
2018-09-12T09:24:14.789Z,77.80
2018-09-12T09:26:44.142Z,75.80
2018-09-12T09:29:13.039Z,75.20
2018-09-12T09:31:42.027Z,75.40
2018-09-12T09:34:10.771Z,76.20
2018-09-12T09:36:40.172Z,77.60
2018-09-12T09:39:10.517Z,79.10
2018-09-12T09:41:39.591Z,79.80
2018-09-12T09:44:08.512Z,80.60
2018-09-12T09:46:38.253Z,81.00
2018-09-12T09:49:07.438Z,81.50
2018-09-12T09:51:36.033Z,82.90
2018-09-12T09:54:04.155Z,83.70
2018-09-12T09:56:33.019Z,84.30
2018-09-12T09:59:01.647Z,84.50
2018-09-12T10:01:35.778Z,85.70
2018-09-12T10:04:09.583Z,86.50
2018-09-12T10:06:43.630Z,84.80
2018-09-12T10:09:18.011Z,84.00
2018-09-12T10:11:46.908Z,84.30
2018-09-12T10:14:15.607Z,84.70
2018-09-12T10:16:44.693Z,83.20
2018-09-12T10:19:13.576Z,81.60
2018-09-12T10:21:41.983Z,81.30
2018-09-12T10:24:11.108Z,82.10
2018-09-12T10:26:40.060Z,82.40
2018-09-12T10:29:10.123Z,82.60
2018-09-12T10:31:39.299Z,84.00
2018-09-12T10:34:08.009Z,84.70
2018-09-12T10:36:36.433Z,83.20
2018-09-12T10:39:07.745Z,80.20
2018-09-12T10:41:36.753Z,76.20
2018-09-12T10:44:05.829Z,77.40
2018-09-12T10:46:35.170Z,76.40
2018-09-12T10:49:03.651Z,74.60
2018-09-12T10:51:32.279Z,73.00
2018-09-12T10:54:02.160Z,73.30
2018-09-12T10:56:31.207Z,75.00
2018-09-12T10:58:59.595Z,75.30
2018-09-12T11:01:28.897Z,73.70
2018-09-12T11:03:58.083Z,71.30
2018-09-12T11:06:26.683Z,72.50
2018-09-12T11:08:56.253Z,73.90
2018-09-12T11:11:25.656Z,75.20
2018-09-12T11:13:54.716Z,74.30
2018-09-12T11:16:23.201Z,74.10
2018-09-12T11:18:53.016Z,71.90
2018-09-12T11:21:21.999Z,71.80
2018-09-12T11:23:51.522Z,71.30
2018-09-12T11:26:20.173Z,72.20
2018-09-12T11:28:48.928Z,71.40
2018-09-12T11:31:17.510Z,71.50
2018-09-12T11:33:46.419Z,69.70
2018-09-12T11:36:15.265Z,67.60
2018-09-12T11:38:43.869Z,66.60
2018-09-12T11:41:12.655Z,62.70
2018-09-12T11:43:41.091Z,63.90
2018-09-12T11:46:09.639Z,65.30
2018-09-12T11:48:38.393Z,62.10
2018-09-12T11:51:06.500Z,61.00
2018-09-12T11:53:35.368Z,57.70
2018-09-12T11:56:04.241Z,55.10
2018-09-12T11:58:33.066Z,57.30
2018-09-12T12:01:02.127Z,57.10
2018-09-12T12:03:30.899Z,56.90
2018-09-12T12:05:59.553Z,60.40
2018-09-12T12:08:28.072Z,61.80
2018-09-12T12:10:56.523Z,60.00
2018-09-12T12:13:25.039Z,57.00
2018-09-12T12:15:53.805Z,55.00
2018-09-12T12:18:22.581Z,55.40
2018-09-12T12:20:51.043Z,54.80
2018-09-12T12:23:19.471Z,52.30
2018-09-12T12:25:48.127Z,51.70
2018-09-12T12:28:16.685Z,51.80
2018-09-12T12:30:47.587Z,51.00
2018-09-12T12:33:16.420Z,50.80
2018-09-12T12:35:45.340Z,50.70
2018-09-12T12:38:15.330Z,49.10
2018-09-12T12:40:44.426Z,48.40
2018-09-12T12:43:13.670Z,47.30
2018-09-12T12:45:42.836Z,47.50
2018-09-12T12:48:11.917Z,49.20
2018-09-12T12:50:41.187Z,51.60
2018-09-12T12:53:10.147Z,51.10
2018-09-12T12:55:39.006Z,50.00
2018-09-12T12:58:07.933Z,48.30
2018-09-12T13:00:36.765Z,47.10
2018-09-12T13:03:05.035Z,46.80
2018-09-12T13:05:33.762Z,46.40
2018-09-12T13:08:01.914Z,46.80
2018-09-12T13:10:30.912Z,48.70
2018-09-12T13:13:00.273Z,48.40
2018-09-12T13:15:29.012Z,46.60
2018-09-12T13:17:57.745Z,46.20
2018-09-12T13:20:26.580Z,45.00
2018-09-12T13:22:55.009Z,45.10
2018-09-12T13:25:24.192Z,46.30
2018-09-12T13:27:53.095Z,46.70
2018-09-12T13:30:22.307Z,46.30
2018-09-12T13:32:51.501Z,49.30
2018-09-12T13:35:20.949Z,49.00
2018-09-12T13:37:49.492Z,48.20
2018-09-12T13:40:17.917Z,49.00
2018-09-12T13:42:47.077Z,50.50
2018-09-12T13:45:15.838Z,52.60
2018-09-12T13:47:44.751Z,53.70
2018-09-12T13:50:16.310Z,54.00
2018-09-12T13:52:45.877Z,53.20
2018-09-12T13:55:14.878Z,52.80
2018-09-12T13:57:44.344Z,51.60
2018-09-12T14:00:12.500Z,50.40
2018-09-12T14:02:40.694Z,48.80
2018-09-12T14:05:09.291Z,47.90
2018-09-12T14:07:38.408Z,47.90
2018-09-12T14:10:06.804Z,48.40
2018-09-12T14:12:36.094Z,48.90
2018-09-12T14:15:04.450Z,48.00
2018-09-12T14:17:33.370Z,47.80
2018-09-12T14:20:02.226Z,47.50
2018-09-12T14:22:31.622Z,48.00
2018-09-12T14:25:00.906Z,47.80
2018-09-12T14:27:30.629Z,48.10
2018-09-12T14:29:59.490Z,47.80
2018-09-12T14:32:28.626Z,47.30
2018-09-12T14:34:57.303Z,47.50
2018-09-12T14:37:26.064Z,46.60
2018-09-12T14:39:55.106Z,46.90
2018-09-12T14:42:24.106Z,47.60
2018-09-12T14:44:52.848Z,47.60
2018-09-12T14:47:22.023Z,47.30
2018-09-12T14:49:50.711Z,48.40
2018-09-12T14:52:19.127Z,50.00
2018-09-12T14:54:48.398Z,51.90
2018-09-12T14:57:17.455Z,52.10
2018-09-12T14:59:46.449Z,52.10
2018-09-12T15:02:15.771Z,53.30
2018-09-12T15:04:44.552Z,54.80
2018-09-12T15:07:13.651Z,56.00
2018-09-12T15:09:43.956Z,57.10
2018-09-12T15:12:13.279Z,58.00
2018-09-12T15:14:41.979Z,58.60
2018-09-12T15:17:10.658Z,60.20
2018-09-12T15:19:39.827Z,60.40
2018-09-12T15:22:08.845Z,61.30
2018-09-12T15:24:37.638Z,63.00
2018-09-12T15:27:06.439Z,62.50
2018-09-12T15:29:35.294Z,63.60
2018-09-12T15:32:03.832Z,65.40
2018-09-12T15:34:32.251Z,66.20
2018-09-12T15:37:01.050Z,67.40
2018-09-12T15:39:30.181Z,68.10
2018-09-12T15:41:58.995Z,68.90
2018-09-12T15:44:27.441Z,69.10
2018-09-12T15:46:56.305Z,68.80
2018-09-12T15:49:24.993Z,68.90
2018-09-12T15:51:53.812Z,69.30
2018-09-12T15:54:22.901Z,70.10
2018-09-12T15:56:51.694Z,71.00
2018-09-12T15:59:20.143Z,71.90
2018-09-12T16:01:49.085Z,73.40
2018-09-12T16:04:17.929Z,74.20
2018-09-12T16:06:46.743Z,74.30
2018-09-12T16:09:15.573Z,75.20
2018-09-12T16:11:44.278Z,76.80
2018-09-12T16:14:13.019Z,77.80
2018-09-12T16:16:42.155Z,78.70
2018-09-12T16:19:10.779Z,79.90
2018-09-12T16:21:39.181Z,81.40
2018-09-12T16:24:08.333Z,82.90
2018-09-12T16:26:37.017Z,86.00
2018-09-12T16:29:05.362Z,89.40
2018-09-12T16:31:34.070Z,92.50
2018-09-12T16:34:02.503Z,95.20
2018-09-12T16:36:31.423Z,98.60
2018-09-12T16:39:00.188Z,99.90
2018-09-12T16:41:28.946Z,99.90
2018-09-12T16:43:57.976Z,99.90
2018-09-12T16:46:26.717Z,99.90
2018-09-12T16:48:55.223Z,99.90
2018-09-12T16:51:24.605Z,99.90
2018-09-12T16:53:53.683Z,99.90
2018-09-12T16:56:22.514Z,99.90
2018-09-12T16:58:52.022Z,99.90
2018-09-12T17:01:20.465Z,99.90
2018-09-12T17:03:48.838Z,99.90
2018-09-12T17:06:17.430Z,99.90
2018-09-12T17:08:46.360Z,99.90
2018-09-12T17:11:15.329Z,99.90
2018-09-12T17:13:44.446Z,99.90
2018-09-12T17:16:13.100Z,99.90
2018-09-12T17:18:41.481Z,99.90
2018-09-12T17:21:10.638Z,99.90
2018-09-12T17:23:39.025Z,99.90
2018-09-12T17:26:07.475Z,99.90
2018-09-12T17:28:36.564Z,99.90
2018-09-12T17:31:04.628Z,99.90
2018-09-12T17:33:33.344Z,99.90
2018-09-12T17:36:01.868Z,99.90
2018-09-12T17:38:30.659Z,99.90
2018-09-12T17:40:59.827Z,99.90
2018-09-12T17:43:28.893Z,99.90
2018-09-12T17:45:57.363Z,99.90
2018-09-12T17:48:26.257Z,99.90
2018-09-12T17:50:54.412Z,99.90
2018-09-12T17:53:23.460Z,99.90
2018-09-12T17:55:52.175Z,99.90
2018-09-12T17:58:21.210Z,99.90
2018-09-12T18:00:50.064Z,99.90
2018-09-12T18:03:19.635Z,99.90
2018-09-12T18:05:48.915Z,99.90
2018-09-12T18:08:17.474Z,99.90
2018-09-12T18:10:46.026Z,99.90
2018-09-12T18:13:14.948Z,99.90
2018-09-12T18:15:43.433Z,99.90
2018-09-12T18:18:11.763Z,99.90
2018-09-12T18:20:40.592Z,99.90
2018-09-12T18:23:09.435Z,99.90
2018-09-12T18:25:37.953Z,99.90
2018-09-12T18:28:06.855Z,99.90
2018-09-12T18:30:35.070Z,99.90
2018-09-12T18:33:04.080Z,99.90
2018-09-12T18:35:32.506Z,99.90
2018-09-12T18:38:00.943Z,99.90
2018-09-12T18:40:30.295Z,99.90
2018-09-12T18:42:59.101Z,99.90
2018-09-12T18:45:28.030Z,99.90
2018-09-12T18:47:57.227Z,99.90
2018-09-12T18:50:26.042Z,99.90
2018-09-12T18:52:55.004Z,99.90
2018-09-12T18:55:23.968Z,99.90
2018-09-12T18:57:52.726Z,99.90
2018-09-12T19:00:21.990Z,99.90
2018-09-12T19:02:50.993Z,99.90
2018-09-12T19:05:19.859Z,99.90
2018-09-12T19:07:48.944Z,99.90
2018-09-12T19:10:17.814Z,99.90
2018-09-12T19:12:46.877Z,99.90
2018-09-12T19:15:16.071Z,99.90
2018-09-12T19:17:45.039Z,99.90
2018-09-12T19:20:13.489Z,99.90
2018-09-12T19:22:42.519Z,99.90
2018-09-12T19:25:11.038Z,99.90
2018-09-12T19:27:39.885Z,99.90
2018-09-12T19:30:08.476Z,99.90
2018-09-12T19:32:37.314Z,99.90
2018-09-12T19:35:06.002Z,99.90
2018-09-12T19:37:35.110Z,99.90
2018-09-12T19:40:03.235Z,99.90
2018-09-12T19:42:32.686Z,99.90
2018-09-12T19:45:02.078Z,99.90
2018-09-12T19:47:30.988Z,99.90
2018-09-12T19:49:59.603Z,99.90
2018-09-12T19:52:28.513Z,99.90
2018-09-12T19:54:57.893Z,99.90
2018-09-12T19:57:26.653Z,99.90
2018-09-12T19:59:55.698Z,99.90
2018-09-12T20:02:28.906Z,99.90
2018-09-12T20:04:58.757Z,99.90
2018-09-12T20:07:27.748Z,99.90
2018-09-12T20:09:56.766Z,99.90
2018-09-12T20:12:25.794Z,99.90
2018-09-12T20:14:55.064Z,99.90
2018-09-12T20:17:24.191Z,99.90
2018-09-12T20:19:52.656Z,99.90
2018-09-12T20:22:21.468Z,99.90
2018-09-12T20:24:49.604Z,99.90
2018-09-12T20:27:18.755Z,99.90
2018-09-12T20:29:47.498Z,99.90
2018-09-12T20:32:16.534Z,99.90
2018-09-12T20:34:45.747Z,99.90
2018-09-12T20:37:14.519Z,99.90
2018-09-12T20:39:42.717Z,99.90
2018-09-12T20:42:11.164Z,99.90
2018-09-12T20:44:40.374Z,99.90
2018-09-12T20:47:09.156Z,99.90
2018-09-12T20:49:38.182Z,99.90
2018-09-12T20:52:06.227Z,99.90
2018-09-12T20:54:35.013Z,99.90
2018-09-12T20:57:03.530Z,99.90
2018-09-12T20:59:32.303Z,99.90
2018-09-12T21:02:01.035Z,99.90
2018-09-12T21:04:29.429Z,99.90
2018-09-12T21:06:58.134Z,99.90
2018-09-12T21:09:27.061Z,99.90
2018-09-12T21:11:55.845Z,99.90
2018-09-12T21:14:24.717Z,99.90
2018-09-12T21:16:53.283Z,99.90
2018-09-12T21:19:22.019Z,99.90
2018-09-12T21:21:50.440Z,99.90
2018-09-12T21:24:19.764Z,99.90
2018-09-12T21:26:48.549Z,99.90
2018-09-12T21:29:17.294Z,99.90
2018-09-12T21:31:46.202Z,99.90
2018-09-12T21:34:14.941Z,99.90
2018-09-12T21:36:43.687Z,99.90
2018-09-12T21:39:12.059Z,99.90
2018-09-12T21:41:40.882Z,99.90
2018-09-12T21:44:08.978Z,99.90
2018-09-12T21:46:37.781Z,99.90
2018-09-12T21:49:06.557Z,99.90
2018-09-12T21:51:35.458Z,99.90
2018-09-12T21:54:03.874Z,99.90
2018-09-12T21:56:32.654Z,99.90
2018-09-12T21:59:01.864Z,99.90
2018-09-12T22:01:29.893Z,99.90
2018-09-12T22:03:58.866Z,99.90
2018-09-12T22:06:27.740Z,99.90
2018-09-12T22:08:56.150Z,99.90
2018-09-12T22:11:24.812Z,99.90
2018-09-12T22:13:53.629Z,99.90
2018-09-12T22:16:22.543Z,99.90
2018-09-12T22:18:51.074Z,99.90
2018-09-12T22:21:19.966Z,99.90
2018-09-12T22:23:48.920Z,99.90
2018-09-12T22:26:17.708Z,99.90
2018-09-12T22:28:46.152Z,99.90
2018-09-12T22:31:14.550Z,99.90
2018-09-12T22:33:43.323Z,99.90
2018-09-12T22:36:11.741Z,99.90
2018-09-12T22:38:40.486Z,99.90
2018-09-12T22:41:09.307Z,99.90
2018-09-12T22:43:37.743Z,99.90
2018-09-12T22:46:06.582Z,99.90
2018-09-12T22:48:35.083Z,99.90
2018-09-12T22:51:04.236Z,99.90
2018-09-12T22:53:32.353Z,99.90
2018-09-12T22:56:01.778Z,99.90
2018-09-12T22:58:30.834Z,99.90
2018-09-12T23:00:59.705Z,99.90
2018-09-12T23:03:28.115Z,99.90
2018-09-12T23:05:57.246Z,99.90
2018-09-12T23:08:25.993Z,99.90
2018-09-12T23:10:54.447Z,99.90
2018-09-12T23:13:23.225Z,99.90
2018-09-12T23:15:52.082Z,99.90
2018-09-12T23:18:21.068Z,99.90
2018-09-12T23:20:50.663Z,99.90
2018-09-12T23:23:19.449Z,99.90
2018-09-12T23:25:48.222Z,99.90
2018-09-12T23:28:16.915Z,99.90
2018-09-12T23:30:45.662Z,99.90
2018-09-12T23:33:14.233Z,99.90
2018-09-12T23:35:43.455Z,99.90
2018-09-12T23:38:12.170Z,99.90
2018-09-12T23:40:40.879Z,99.90
2018-09-12T23:43:09.904Z,99.90
2018-09-12T23:45:38.330Z,99.90
2018-09-12T23:48:06.918Z,99.90
2018-09-12T23:50:35.917Z,99.90
2018-09-12T23:53:04.451Z,99.90
2018-09-12T23:55:32.961Z,99.90
2018-09-12T23:58:01.959Z,99.90
